Time;durP1;ratioP1;P1;durP2;ratioP2;P2;SDS_P1;SDS_P2;PMS_P1;PMS_P2;Temp;Humidity;BMP_temperature;BMP_pressure;BME280_temperature;BME280_humidity;BME280_pressure;Samples;Min_cycle;Max_cycle;Signal;HPM_P1;HPM_P2
2023/06/09 00:00:21;;;;;;;9.30;2.05;;;16.10;1.00;;;;;;20805246;28;20694;-41
2023/06/09 00:10:43;;;;;;;8.18;2.08;;;16.00;1.00;;;;;;20796045;28;20331;-41
2023/06/09 00:21:04;;;;;;;8.48;2.20;;;15.80;1.00;;;;;;20806354;28;20036;-41
2023/06/09 00:31:25;;;;;;;6.97;1.73;;;15.70;1.00;;;;;;20804395;28;20631;-41
2023/06/09 00:41:47;;;;;;;7.63;2.30;;;15.50;1.00;;;;;;20801232;28;20120;-41
2023/06/09 00:52:10;;;;;;;6.80;2.15;;;15.40;1.00;;;;;;20809123;28;20568;-41
2023/06/09 01:02:31;;;;;;;5.32;1.65;;;15.30;1.00;;;;;;20810119;28;20362;-41
2023/06/09 01:13:09;;;;;;;6.78;2.47;;;15.30;1.00;;;;;;20801697;28;20091;-41
2023/06/09 01:24:00;;;;;;;7.80;1.63;;;15.20;1.00;;;;;;20797369;28;20039;-41
2023/06/09 01:34:22;;;;;;;6.80;1.38;;;15.10;1.00;;;;;;20797025;28;20128;-41
2023/06/09 01:44:43;;;;;;;6.30;1.67;;;15.00;1.00;;;;;;20799912;28;20043;-41
2023/06/09 01:55:12;;;;;;;7.88;2.10;;;14.90;1.00;;;;;;20794703;28;20501;-41
2023/06/09 02:05:36;;;;;;;5.40;2.17;;;14.80;1.00;;;;;;20799083;28;20091;-41
2023/06/09 02:15:57;;;;;;;4.78;1.55;;;14.80;1.00;;;;;;20793640;28;20505;-41
2023/06/09 02:26:19;;;;;;;7.32;2.20;;;14.70;1.00;;;;;;20795450;28;20573;-41
2023/06/09 02:36:42;;;;;;;6.35;1.98;;;14.70;1.00;;;;;;20802173;28;20064;-41
2023/06/09 02:47:05;;;;;;;4.05;1.42;;;14.60;1.00;;;;;;20805127;28;20037;-41
2023/06/09 02:57:27;;;;;;;7.50;2.00;;;14.60;1.00;;;;;;20805139;28;20791;-41
2023/06/09 03:07:49;;;;;;;5.15;2.63;;;14.30;1.00;;;;;;20810578;28;20128;-41
2023/06/09 03:18:10;;;;;;;7.38;2.20;;;14.30;1.00;;;;;;20806964;28;20069;-41
2023/06/09 03:28:32;;;;;;;5.30;1.65;;;14.30;1.00;;;;;;20803813;28;20139;-41
2023/06/09 03:38:54;;;;;;;6.28;1.70;;;14.20;1.00;;;;;;20796542;28;20496;-41
2023/06/09 03:49:15;;;;;;;4.53;1.85;;;14.10;1.00;;;;;;20802988;28;20131;-41
2023/06/09 03:59:36;;;;;;;6.32;2.30;;;14.10;1.00;;;;;;20804295;28;20068;-41
2023/06/09 04:09:58;;;;;;;3.85;1.50;;;14.00;1.00;;;;;;20811166;28;20532;-41
2023/06/09 04:20:22;;;;;;;9.65;2.75;;;14.00;1.00;;;;;;20795735;28;20139;-41
2023/06/09 04:30:44;;;;;;;4.03;2.13;;;14.10;1.00;;;;;;20804493;28;20571;-41
2023/06/09 04:41:05;;;;;;;5.47;2.00;;;14.00;1.00;;;;;;20804055;28;20480;-41
2023/06/09 04:51:26;;;;;;;8.00;3.53;;;14.10;1.00;;;;;;20804340;28;20036;-41
2023/06/09 05:01:48;;;;;;;7.13;3.13;;;14.20;1.00;;;;;;20808557;28;20040;-41
2023/06/09 05:12:09;;;;;;;8.48;2.85;;;14.30;1.00;;;;;;20802162;28;20131;-41
2023/06/09 05:22:32;;;;;;;5.65;1.90;;;14.50;1.00;;;;;;20800347;28;20127;-41
2023/06/09 05:32:53;;;;;;;12.88;2.88;;;14.60;1.00;;;;;;20796453;28;20841;-41
2023/06/09 05:43:15;;;;;;;4.05;1.90;;;14.90;1.00;;;;;;20797719;28;20336;-41
2023/06/09 05:53:36;;;;;;;6.53;1.80;;;15.20;1.00;;;;;;20802519;28;20072;-41
2023/06/09 06:03:58;;;;;;;9.32;2.92;;;15.50;1.00;;;;;;20804957;28;20037;-41
2023/06/09 06:14:19;;;;;;;7.75;2.33;;;16.00;1.00;;;;;;20807609;28;20116;-41
2023/06/09 06:24:41;;;;;;;6.68;2.50;;;16.40;1.00;;;;;;20809479;28;20033;-41
2023/06/09 06:35:02;;;;;;;7.28;2.63;;;16.60;1.00;;;;;;20816736;28;20527;-42
2023/06/09 06:45:26;;;;;;;6.00;2.50;;;16.90;1.00;;;;;;20816535;28;20052;-41
2023/06/09 06:55:47;;;;;;;8.10;3.00;;;17.20;1.00;;;;;;20815239;28;20037;-42
2023/06/09 07:06:09;;;;;;;5.30;2.88;;;17.40;1.00;;;;;;20780417;28;20047;-41
2023/06/09 07:16:31;;;;;;;9.10;2.70;;;17.70;1.00;;;;;;20822040;28;20120;-41
2023/06/09 07:26:53;;;;;;;14.45;3.67;;;18.10;1.00;;;;;;20800179;28;20038;-41
2023/06/09 07:37:14;;;;;;;9.45;2.90;;;18.40;1.00;;;;;;20806975;28;20103;-41
2023/06/09 07:47:36;;;;;;;6.82;3.20;;;18.40;1.00;;;;;;20807264;28;20931;-41
2023/06/09 07:57:57;;;;;;;6.75;2.92;;;18.60;1.00;;;;;;20804032;28;20132;-41
2023/06/09 08:08:19;;;;;;;8.27;4.07;;;19.00;1.00;;;;;;20792857;28;20071;-41
2023/06/09 08:18:40;;;;;;;9.65;4.22;;;19.30;1.00;;;;;;20793612;28;20119;-41
2023/06/09 08:29:03;;;;;;;10.63;4.32;;;19.60;1.00;;;;;;20792110;28;20073;-41
2023/06/09 08:39:24;;;;;;;7.93;3.10;;;20.00;1.00;;;;;;20807131;28;20076;-41
2023/06/09 08:49:48;;;;;;;7.18;3.70;;;20.40;1.00;;;;;;20787355;28;20314;-41
2023/06/09 09:00:11;;;;;;;7.70;3.65;;;20.80;1.00;;;;;;20791832;28;20164;-41
2023/06/09 09:10:33;;;;;;;6.30;3.40;;;21.30;1.00;;;;;;20802786;28;20040;-41
2023/06/09 09:20:54;;;;;;;9.90;4.10;;;21.80;1.00;;;;;;20802890;28;20128;-41
2023/06/09 09:31:16;;;;;;;5.50;3.38;;;22.30;1.00;;;;;;20796278;28;20119;-41
2023/06/09 09:41:37;;;;;;;6.53;3.70;;;22.80;1.00;;;;;;20822921;28;20550;-41
2023/06/09 09:51:58;;;;;;;7.05;3.88;;;23.30;1.00;;;;;;20818811;28;20262;-41
2023/06/09 10:02:24;;;;;;;5.63;3.30;;;23.80;1.00;;;;;;20804407;28;20099;-41
2023/06/09 10:12:45;;;;;;;6.45;3.53;;;24.30;1.00;;;;;;20817624;28;20045;-41
2023/06/09 10:23:07;;;;;;;8.00;3.70;;;24.60;1.00;;;;;;20822069;28;20044;-42
2023/06/09 10:33:33;;;;;;;7.20;3.25;;;25.00;1.00;;;;;;20809549;28;20387;-42
2023/06/09 10:44:17;;;;;;;6.20;3.70;;;25.10;1.00;;;;;;20799281;28;20072;-42
2023/06/09 10:54:39;;;;;;;5.97;3.80;;;25.40;1.00;;;;;;20809618;28;20065;-42
2023/06/09 11:05:04;;;;;;;6.45;3.60;;;25.60;1.00;;;;;;20819454;28;20426;-42
2023/06/09 11:16:00;;;;;;;5.80;3.70;;;25.90;1.00;;;;;;20839547;28;20044;-42
2023/06/09 11:26:23;;;;;;;7.45;4.35;;;26.00;1.00;;;;;;20844799;28;20033;-42
2023/06/09 11:36:48;;;;;;;6.80;3.60;;;26.50;1.00;;;;;;20835212;28;20555;-42
2023/06/09 11:47:26;;;;;;;5.10;3.47;;;26.50;1.00;;;;;;20816585;28;20090;-42
2023/06/09 11:57:47;;;;;;;8.95;4.30;;;26.50;1.00;;;;;;20833826;28;20057;-42
2023/06/09 12:08:12;;;;;;;6.20;3.75;;;26.70;1.00;;;;;;20824478;28;20048;-42
2023/06/09 12:18:33;;;;;;;6.47;3.63;;;26.70;1.00;;;;;;20825101;28;20040;-42
2023/06/09 12:28:55;;;;;;;6.47;3.45;;;27.40;1.00;;;;;;20830878;28;20536;-42
2023/06/09 12:39:21;;;;;;;5.38;2.90;;;27.40;1.00;;;;;;20824278;28;20048;-42
2023/06/09 12:49:43;;;;;;;4.18;3.05;;;27.60;1.00;;;;;;20817698;28;20548;-42
2023/06/09 13:00:05;;;;;;;5.13;3.03;;;28.70;1.00;;;;;;20819274;28;20552;-42
2023/06/09 13:10:31;;;;;;;4.00;2.55;;;29.10;1.00;;;;;;20816491;28;20063;-42
2023/06/09 13:20:52;;;;;;;4.13;3.00;;;29.50;1.00;;;;;;20815925;28;20412;-42
2023/06/09 13:31:14;;;;;;;4.57;3.20;;;29.80;1.00;;;;;;20815173;28;20148;-42
2023/06/09 13:41:35;;;;;;;6.20;3.28;;;29.80;1.00;;;;;;20814646;28;20084;-42
2023/06/09 13:51:56;;;;;;;6.28;2.85;;;29.60;1.00;;;;;;20809240;28;20147;-42
2023/06/09 14:02:17;;;;;;;3.92;3.03;;;29.60;1.00;;;;;;20822873;28;20124;-42
2023/06/09 14:12:40;;;;;;;4.75;2.65;;;29.30;1.00;;;;;;20822284;28;20044;-42
2023/06/09 14:23:04;;;;;;;4.93;3.00;;;29.40;1.00;;;;;;20812035;28;20281;-42
2023/06/09 14:33:26;;;;;;;5.72;3.00;;;29.50;1.00;;;;;;20823943;28;20048;-42
2023/06/09 14:43:47;;;;;;;7.93;3.28;;;29.50;1.00;;;;;;20836054;28;20037;-42
2023/06/09 14:54:08;;;;;;;4.13;3.00;;;29.30;1.00;;;;;;20840822;28;20472;-42
2023/06/09 15:04:29;;;;;;;5.55;2.90;;;29.00;1.00;;;;;;20837468;28;20132;-42
2023/06/09 15:14:51;;;;;;;4.93;2.58;;;28.50;1.00;;;;;;20843266;28;20139;-42
2023/06/09 15:25:13;;;;;;;3.53;2.83;;;29.10;1.00;;;;;;20833039;28;20041;-42
2023/06/09 15:35:36;;;;;;;3.67;2.92;;;29.10;1.00;;;;;;20826109;28;20376;-42
2023/06/09 15:45:58;;;;;;;4.63;2.90;;;29.10;1.00;;;;;;20833511;28;20075;-42
2023/06/09 15:56:19;;;;;;;6.13;3.05;;;29.10;1.00;;;;;;20827230;28;20166;-42
2023/06/09 16:06:41;;;;;;;4.50;2.80;;;28.90;1.00;;;;;;20826080;28;20037;-42
2023/06/09 16:17:03;;;;;;;5.75;3.15;;;28.90;1.00;;;;;;20843813;28;20074;-42
2023/06/09 16:27:25;;;;;;;5.70;3.10;;;28.80;1.00;;;;;;20841161;28;20551;-42
2023/06/09 16:37:46;;;;;;;5.03;3.35;;;28.60;1.00;;;;;;20832343;28;20136;-42
2023/06/09 16:48:07;;;;;;;3.78;2.92;;;28.40;1.00;;;;;;20832671;28;20040;-42
2023/06/09 16:58:29;;;;;;;5.18;2.92;;;28.60;1.00;;;;;;20828393;28;20368;-42
2023/06/09 17:08:51;;;;;;;6.05;3.30;;;28.60;1.00;;;;;;20823655;28;20043;-42
2023/06/09 17:19:13;;;;;;;4.75;3.30;;;28.60;1.00;;;;;;20834567;28;20040;-42
2023/06/09 17:29:34;;;;;;;4.10;3.35;;;28.60;1.00;;;;;;20823489;28;20551;-42
2023/06/09 17:39:55;;;;;;;5.20;3.50;;;28.40;1.00;;;;;;20818802;28;20273;-42
2023/06/09 17:50:17;;;;;;;4.18;3.25;;;28.30;1.00;;;;;;20826614;28;20128;-42
2023/06/09 18:00:38;;;;;;;5.18;3.50;;;28.30;1.00;;;;;;20832917;28;20033;-42
2023/06/09 18:10:59;;;;;;;6.43;3.60;;;28.20;1.00;;;;;;20840830;28;20123;-42
2023/06/09 18:21:21;;;;;;;5.38;3.50;;;28.10;1.00;;;;;;20854520;28;21159;-42
2023/06/09 18:31:42;;;;;;;3.92;3.28;;;28.00;1.00;;;;;;20848589;28;20056;-42
2023/06/09 18:42:04;;;;;;;6.45;3.90;;;27.80;1.00;;;;;;20839873;28;20267;-42
2023/06/09 18:52:25;;;;;;;8.90;4.38;;;27.70;1.00;;;;;;20840218;28;20691;-42
2023/06/09 19:02:47;;;;;;;6.57;3.83;;;27.50;1.00;;;;;;20840320;28;20048;-42
2023/06/09 19:13:09;;;;;;;8.90;3.92;;;27.20;1.00;;;;;;20844726;28;20057;-42
2023/06/09 19:23:30;;;;;;;5.30;3.70;;;26.80;1.00;;;;;;20834034;28;20401;-42
2023/06/09 19:33:51;;;;;;;6.60;4.22;;;26.50;1.00;;;;;;20843974;28;20119;-42
2023/06/09 19:44:13;;;;;;;6.40;3.97;;;26.20;1.00;;;;;;20836349;28;20432;-42
2023/06/09 19:54:34;;;;;;;7.95;4.15;;;26.10;1.00;;;;;;20840823;28;20364;-42
2023/06/09 20:04:56;;;;;;;5.63;4.43;;;25.80;1.00;;;;;;20824530;28;20056;-42
2023/06/09 20:15:18;;;;;;;5.43;4.13;;;25.60;1.00;;;;;;20828281;28;20064;-42
2023/06/09 20:25:39;;;;;;;5.65;4.32;;;25.20;1.00;;;;;;20826416;28;20071;-42
2023/06/09 20:36:01;;;;;;;7.35;4.30;;;25.00;1.00;;;;;;20805316;28;20159;-42
2023/06/09 20:46:23;;;;;;;7.25;5.22;;;24.60;1.00;;;;;;20826606;28;20432;-42
2023/06/09 20:56:46;;;;;;;7.95;5.50;;;24.40;1.00;;;;;;20811834;28;20334;-42
2023/06/09 21:07:09;;;;;;;7.47;4.63;;;24.00;1.00;;;;;;20815997;28;20680;-42
2023/06/09 21:17:30;;;;;;;8.70;5.20;;;23.80;1.00;;;;;;20833429;28;20532;-42
2023/06/09 21:27:52;;;;;;;6.10;4.90;;;23.70;1.00;;;;;;20823917;28;20037;-42
2023/06/09 21:38:13;;;;;;;6.63;4.65;;;23.40;1.00;;;;;;20830177;28;20120;-42
2023/06/09 21:48:34;;;;;;;6.40;4.70;;;23.40;1.00;;;;;;20818757;28;20107;-42
2023/06/09 21:58:56;;;;;;;5.43;4.43;;;23.30;1.00;;;;;;20809491;28;20333;-42
2023/06/09 22:09:18;;;;;;;6.88;4.45;;;23.30;1.00;;;;;;20811127;28;20524;-42
2023/06/09 22:19:39;;;;;;;6.80;5.07;;;23.00;1.00;;;;;;20807963;28;20028;-42
2023/06/09 22:30:00;;;;;;;6.05;4.57;;;22.80;1.00;;;;;;20821838;28;20081;-42
2023/06/09 22:40:22;;;;;;;8.85;4.30;;;22.50;1.00;;;;;;20816449;28;20033;-42
2023/06/09 22:50:43;;;;;;;5.82;4.78;;;22.10;1.00;;;;;;20822762;28;20627;-42
2023/06/09 23:01:04;;;;;;;6.68;4.38;;;21.90;1.00;;;;;;20820313;28;20072;-42
2023/06/09 23:11:26;;;;;;;7.43;3.88;;;21.70;1.00;;;;;;20836697;28;20064;-41
2023/06/09 23:21:50;;;;;;;7.28;3.88;;;21.50;1.00;;;;;;20829257;28;20067;-42
2023/06/09 23:32:12;;;;;;;7.75;4.30;;;21.40;1.00;;;;;;20833800;28;20048;-42
2023/06/09 23:42:33;;;;;;;8.90;3.78;;;21.40;1.00;;;;;;20840309;28;20555;-42
2023/06/09 23:52:55;;;;;;;4.57;2.63;;;21.40;1.00;;;;;;20827149;28;20073;-42
